Time;durP1;ratioP1;P1;durP2;ratioP2;P2;SDS_P1;SDS_P2;PMS_P1;PMS_P2;Temp;Humidity;BMP_temperature;BMP_pressure;BME280_temperature;BME280_humidity;BME280_pressure;Samples;Min_cycle;Max_cycle;Signal;HPM_P1;HPM_P2
2022/12/25 00:01:30;;;;;;;13.63;12.30;;;;;;;8.58;100.00;96853.81;4993667;28;20618;-59
2022/12/25 00:03:57;;;;;;;14.07;12.73;;;;;;;8.58;100.00;96855.63;4993214;28;20216;-59
2022/12/25 00:06:24;;;;;;;14.37;12.90;;;;;;;8.57;100.00;96857.44;4993565;28;20209;-59
2022/12/25 00:08:51;;;;;;;13.57;12.17;;;;;;;8.54;100.00;96849.75;4993115;28;20225;-59
2022/12/25 00:11:19;;;;;;;13.27;11.93;;;;;;;8.55;100.00;96851.44;4993495;28;20673;-60
2022/12/25 00:13:46;;;;;;;15.33;13.73;;;;;;;8.52;100.00;96849.06;5008643;28;20197;-59
2022/12/25 00:16:16;;;;;;;14.87;13.27;;;;;;;8.57;100.00;96861.88;5016201;28;20196;-58
2022/12/25 00:18:43;;;;;;;13.23;11.27;;;;;;;8.51;100.00;96857.91;5017673;28;20185;-58
2022/12/25 00:21:10;;;;;;;11.53;10.40;;;;;;;8.50;100.00;96851.81;5002229;28;20201;-59
2022/12/25 00:23:37;;;;;;;11.27;10.17;;;;;;;8.48;100.00;96863.44;4995710;28;20548;-60
2022/12/25 00:26:07;;;;;;;10.30;9.30;;;;;;;8.52;100.00;96853.50;4994847;28;20216;-60
2022/12/25 00:28:34;;;;;;;11.90;9.80;;;;;;;8.53;100.00;96852.53;4994305;28;20232;-59
2022/12/25 00:31:04;;;;;;;9.67;8.73;;;;;;;8.52;100.00;96856.97;4994139;28;20197;-58
2022/12/25 00:33:34;;;;;;;9.60;8.70;;;;;;;8.52;100.00;96846.44;4993529;28;20208;-60
2022/12/25 00:36:01;;;;;;;10.40;9.43;;;;;;;8.49;100.00;96844.88;4993073;28;20205;-60
2022/12/25 00:38:28;;;;;;;9.43;8.53;;;;;;;8.47;100.00;96846.78;4993996;28;20201;-60
2022/12/25 00:40:55;;;;;;;9.03;8.17;;;;;;;8.50;100.00;96853.63;5015784;28;20189;-59
2022/12/25 00:43:22;;;;;;;8.70;7.90;;;;;;;8.47;100.00;96845.94;5019385;28;20209;-58
2022/12/25 00:45:54;;;;;;;8.87;7.97;;;;;;;8.45;100.00;96842.63;5028068;28;20211;-59
2022/12/25 00:48:21;;;;;;;8.00;7.30;;;;;;;8.45;100.00;96845.25;5020720;28;20227;-59
2022/12/25 00:50:49;;;;;;;8.33;7.53;;;;;;;8.45;100.00;96837.34;5002122;28;20220;-60
2022/12/25 00:53:15;;;;;;;9.20;8.40;;;;;;;8.50;100.00;96837.81;5001671;28;20197;-60
2022/12/25 00:55:42;;;;;;;8.90;8.10;;;;;;;8.47;100.00;96830.97;5001886;28;20204;-59
2022/12/25 00:58:08;;;;;;;8.67;7.87;;;;;;;8.52;100.00;96832.41;5002110;28;20219;-60
2022/12/25 01:00:35;;;;;;;8.90;8.00;;;;;;;8.52;100.00;96835.88;5001831;28;20236;-59
2022/12/25 01:03:01;;;;;;;8.90;8.10;;;;;;;8.52;100.00;96835.88;5002227;28;20215;-59
2022/12/25 01:05:28;;;;;;;8.97;8.10;;;;;;;8.57;100.00;96827.59;5001948;28;20216;-59
2022/12/25 01:07:55;;;;;;;8.93;8.03;;;;;;;8.53;100.00;96815.66;5001864;28;20220;-60
2022/12/25 01:10:21;;;;;;;9.73;8.50;;;;;;;8.55;100.00;96822.44;5001190;28;20625;-60
2022/12/25 01:12:48;;;;;;;9.63;8.73;;;;;;;8.52;100.00;96812.16;5002871;28;20220;-61
2022/12/25 01:15:14;;;;;;;9.97;8.90;;;;;;;8.55;100.00;96811.91;5004029;28;20197;-59
2022/12/25 01:17:41;;;;;;;8.93;8.03;;;;;;;8.48;100.00;96816.84;5003394;28;20201;-60
2022/12/25 01:20:09;;;;;;;7.77;6.93;;;;;;;8.52;100.00;96806.91;5002865;28;20205;-60
2022/12/25 01:22:35;;;;;;;7.90;7.20;;;;;;;8.52;100.00;96806.91;5001947;28;20556;-59
2022/12/25 01:25:06;;;;;;;8.20;7.40;;;;;;;8.46;100.00;96807.41;5001300;28;20216;-62
2022/12/25 01:27:32;;;;;;;8.37;7.60;;;;;;;8.42;100.00;96813.88;5004831;28;20235;-61
2022/12/25 01:29:59;;;;;;;8.63;7.67;;;;;;;8.39;100.00;96814.16;5003397;28;20197;-62
2022/12/25 01:32:27;;;;;;;8.57;7.70;;;;;;;8.37;100.00;96811.63;5004213;28;20212;-60
2022/12/25 01:34:53;;;;;;;8.60;7.80;;;;;;;8.36;100.00;96801.22;5004233;28;20642;-60
2022/12/25 01:37:20;;;;;;;8.07;7.37;;;;;;;8.36;100.00;96806.50;5003489;28;20200;-59
2022/12/25 01:39:47;;;;;;;11.43;10.43;;;;;;;8.36;100.00;96815.22;5003101;28;20526;-60
2022/12/25 01:42:17;;;;;;;11.47;10.37;;;;;;;8.37;100.00;96818.69;5003562;28;20211;-59
2022/12/25 01:45:30;;;;;;;12.00;10.80;;;;;;;8.39;100.00;96816.78;5003515;28;20686;-59
2022/12/25 01:47:57;;;;;;;11.80;10.50;;;;;;;8.44;100.00;96833.03;5005400;28;20224;-64
2022/12/25 01:50:24;;;;;;;12.00;10.90;;;;;;;8.43;100.00;96832.19;5015106;28;20212;-60
2022/12/25 01:52:50;;;;;;;13.80;11.77;;;;;;;8.44;100.00;96825.13;5015307;28;20640;-60
2022/12/25 01:55:17;;;;;;;13.03;11.83;;;;;;;8.47;100.00;96835.41;5016433;28;20218;-60
2022/12/25 01:57:45;;;;;;;13.80;12.40;;;;;;;8.49;100.00;96823.81;5017814;28;20209;-61
2022/12/25 02:00:13;;;;;;;14.70;13.20;;;;;;;8.50;100.00;96812.28;5007707;28;20204;-60
2022/12/25 02:02:41;;;;;;;13.87;12.53;;;;;;;8.52;100.00;96812.16;5002742;28;20201;-59
2022/12/25 02:05:12;;;;;;;14.17;12.80;;;;;;;8.55;100.00;96804.00;5002505;28;20205;-60
2022/12/25 02:07:40;;;;;;;14.30;12.90;;;;;;;8.53;100.00;96818.28;5002244;28;20216;-60
2022/12/25 02:10:08;;;;;;;15.73;14.03;;;;;;;8.49;100.00;96813.25;5001967;28;20220;-60
2022/12/25 02:12:35;;;;;;;14.47;12.97;;;;;;;8.51;100.00;96831.56;5005375;28;20543;-60
2022/12/25 02:15:06;;;;;;;15.83;14.23;;;;;;;8.48;100.00;96819.47;5006768;28;20222;-60
2022/12/25 02:17:38;;;;;;;14.73;13.30;;;;;;;8.47;100.00;96809.06;5009367;28;20555;-60
2022/12/25 02:20:28;;;;;;;15.53;13.97;;;;;;;8.49;100.00;96813.25;5012451;28;20215;-61
2022/12/25 02:23:04;;;;;;;15.30;13.90;;;;;;;8.55;100.00;96805.78;5010564;28;20196;-61
2022/12/25 02:25:40;;;;;;;15.37;13.77;;;;;;;8.55;100.00;96805.78;5008195;28;20211;-59
2022/12/25 02:28:13;;;;;;;15.13;13.63;;;;;;;8.53;100.00;96803.31;5009042;28;20223;-60
2022/12/25 02:30:43;;;;;;;16.10;14.50;;;;;;;8.46;100.00;96802.13;5009097;28;20201;-60
2022/12/25 02:35:58;;;;;;;16.27;14.57;;;;;;;8.45;100.00;96808.38;5001859;28;20283;-60
2022/12/25 02:38:27;;;;;;;16.70;15.10;;;;;;;8.42;100.00;96801.56;5001867;28;20205;-59
2022/12/25 02:40:56;;;;;;;16.57;14.87;;;;;;;8.44;100.00;96801.41;5003746;28;20224;-60
2022/12/25 03:08:28;;;;;;;13.00;11.70;;;;;;;8.32;100.00;96797.16;5004331;28;20280;-60
2022/12/25 03:13:46;;;;;;;13.27;12.07;;;;;;;8.32;100.00;96794.53;5026427;28;20277;-58
2022/12/25 03:18:59;;;;;;;12.20;11.00;;;;;;;8.35;100.00;96795.09;5004044;28;20249;-60
2022/12/25 03:26:57;;;;;;;12.30;11.20;;;;;;;8.39;100.00;96803.59;5003858;28;20270;-60
2022/12/25 03:32:18;;;;;;;11.60;8.40;;;;;;;8.31;100.00;96791.06;5003467;28;20346;-60
2022/12/25 04:38:32;;;;;;;9.70;8.83;;;;;;;7.95;100.00;96771.13;5003751;28;20280;-59
2022/12/25 04:40:59;;;;;;;7.17;5.70;;;;;;;7.90;100.00;96768.03;5002770;28;20204;-60
2022/12/25 04:43:25;;;;;;;5.17;4.53;;;;;;;7.87;100.00;96767.44;5002790;28;20237;-59
2022/12/25 04:45:53;;;;;;;5.30;4.90;;;;;;;7.89;100.00;96766.38;5002804;28;20219;-62
2022/12/25 04:48:19;;;;;;;5.27;4.77;;;;;;;7.84;100.00;96775.59;5003767;28;20360;-60
2022/12/25 04:50:46;;;;;;;3.40;3.20;;;;;;;7.86;100.00;96771.06;5002695;28;20197;-59
2022/12/25 04:53:12;;;;;;;2.70;2.50;;;;;;;7.76;100.00;96770.13;5002539;28;20220;-61
2022/12/25 04:55:40;;;;;;;2.77;2.57;;;;;;;7.77;100.00;96774.41;5002630;28;20220;-59
2022/12/25 04:58:07;;;;;;;3.23;2.80;;;;;;;7.73;100.00;96776.44;5002705;28;20209;-60
2022/12/25 05:00:34;;;;;;;2.80;2.60;;;;;;;7.73;100.00;96786.97;5002636;28;20197;-62
2022/12/25 05:03:00;;;;;;;2.60;2.10;;;;;;;7.67;100.00;96779.56;5001248;28;20216;-60
2022/12/25 05:05:27;;;;;;;2.97;2.70;;;;;;;7.64;100.00;96776.34;5001384;28;20652;-60
2022/12/25 05:07:53;;;;;;;3.33;3.10;;;;;;;7.67;100.00;96774.31;5001133;28;20197;-59
2022/12/25 05:10:20;;;;;;;3.90;3.60;;;;;;;7.72;100.00;96769.50;5001529;28;20231;-60
2022/12/25 05:12:48;;;;;;;4.53;4.13;;;;;;;7.72;100.00;96769.50;5001735;28;20524;-60
2022/12/25 05:15:15;;;;;;;4.20;3.53;;;;;;;7.73;100.00;96779.06;5002060;28;20205;-60
2022/12/25 05:17:41;;;;;;;6.87;4.73;;;;;;;7.75;100.00;96771.06;5002101;28;20223;-60
2022/12/25 05:20:08;;;;;;;7.03;6.27;;;;;;;7.81;100.00;96763.50;5001668;28;20216;-59
2022/12/25 05:22:34;;;;;;;6.17;5.57;;;;;;;7.75;100.00;96758.75;5001812;28;20570;-60
2022/12/25 05:25:02;;;;;;;5.97;5.37;;;;;;;7.71;100.00;96759.94;5001067;28;20536;-60
2022/12/25 05:27:29;;;;;;;7.93;6.17;;;;;;;7.78;100.00;96758.50;5001684;28;20213;-59
2022/12/25 05:29:57;;;;;;;8.93;7.20;;;;;;;7.80;100.00;96761.00;5001059;28;20232;-59
2022/12/25 05:32:23;;;;;;;9.97;8.57;;;;;;;7.79;100.00;96754.91;5001922;28;20235;-59
2022/12/25 05:34:49;;;;;;;11.47;9.67;;;;;;;7.81;100.00;96762.66;5001443;28;20251;-60
2022/12/25 05:37:16;;;;;;;14.87;11.33;;;;;;;7.85;100.00;96764.09;5001970;28;20204;-59
2022/12/25 05:39:42;;;;;;;17.43;12.50;;;;;;;7.84;100.00;96762.41;5000921;28;20216;-59
2022/12/25 05:42:09;;;;;;;16.73;14.33;;;;;;;7.86;100.00;96758.72;5001399;28;20217;-60
2022/12/25 05:44:35;;;;;;;17.77;14.90;;;;;;;7.87;100.00;96747.22;5000735;28;20242;-59
2022/12/25 05:47:03;;;;;;;15.43;13.27;;;;;;;7.90;100.00;96744.31;5001850;28;20200;-60
2022/12/25 05:49:30;;;;;;;18.67;13.27;;;;;;;7.90;100.00;96744.31;5001336;28;20554;-60
2022/12/25 05:51:56;;;;;;;25.20;15.17;;;;;;;7.87;100.00;96741.94;5001581;28;20238;-60
2022/12/25 05:54:23;;;;;;;19.13;14.60;;;;;;;7.83;100.00;96745.78;5000904;28;20212;-60
2022/12/25 05:56:49;;;;;;;16.83;10.60;;;;;;;7.89;100.00;96734.78;5001292;28;20212;-63
2022/12/25 05:59:16;;;;;;;15.07;9.57;;;;;;;7.76;100.00;96738.53;5000742;28;20632;-60
2022/12/25 06:01:42;;;;;;;24.90;10.90;;;;;;;7.71;100.00;96731.00;5000546;28;20208;-60
2022/12/25 06:04:10;;;;;;;13.00;10.77;;;;;;;7.77;100.00;96724.38;5000894;28;20638;-59
2022/12/25 06:06:37;;;;;;;13.93;10.60;;;;;;;7.71;100.00;96722.25;5001405;28;20209;-60
2022/12/25 06:09:03;;;;;;;11.93;9.93;;;;;;;7.67;100.00;96726.09;5003381;28;20228;-58
2022/12/25 06:11:30;;;;;;;11.87;10.27;;;;;;;7.64;100.00;96727.19;5024499;28;20213;-60
2022/12/25 06:13:56;;;;;;;9.47;8.57;;;;;;;7.67;100.00;96732.19;5026487;28;20181;-59
2022/12/25 06:16:23;;;;;;;10.67;9.53;;;;;;;7.60;100.00;96727.53;5027329;28;20201;-60
2022/12/25 06:18:51;;;;;;;10.60;9.30;;;;;;;7.65;100.00;96726.19;5005116;28;20288;-60
2022/12/25 06:21:19;;;;;;;9.10;7.17;;;;;;;7.66;100.00;96722.63;5004848;28;20683;-59
2022/12/25 06:23:46;;;;;;;8.87;7.70;;;;;;;7.63;100.00;96722.03;5005388;28;20213;-60
2022/12/25 06:26:15;;;;;;;10.07;8.97;;;;;;;7.60;100.00;96724.91;5004837;28;20197;-60
2022/12/25 06:28:42;;;;;;;9.87;8.10;;;;;;;7.59;100.00;96716.16;5005160;28;20221;-60
2022/12/25 06:31:11;;;;;;;19.50;10.07;;;;;;;7.55;100.00;96730.53;5004868;28;20215;-60
2022/12/25 06:33:37;;;;;;;9.87;8.73;;;;;;;7.54;100.00;96721.00;5005287;28;20213;-60
2022/12/25 06:36:06;;;;;;;9.37;8.37;;;;;;;7.54;100.00;96718.34;5011115;28;20224;-59
2022/12/25 06:38:34;;;;;;;11.23;9.33;;;;;;;7.53;100.00;96716.66;5028320;28;20201;-59
2022/12/25 06:41:04;;;;;;;10.97;9.77;;;;;;;7.53;100.00;96718.47;5028743;28;20227;-59
2022/12/25 06:43:30;;;;;;;15.60;10.43;;;;;;;7.53;100.00;96707.94;5027905;28;20209;-60
2022/12/25 06:45:56;;;;;;;12.40;10.17;;;;;;;7.55;100.00;96708.63;5008976;28;20205;-60
2022/12/25 06:48:23;;;;;;;13.33;10.97;;;;;;;7.54;100.00;96707.81;4995118;28;20228;-60
2022/12/25 06:50:50;;;;;;;30.83;13.53;;;;;;;7.54;100.00;96707.00;4998200;28;20291;-60
2022/12/25 06:53:21;;;;;;;12.50;11.20;;;;;;;7.55;100.00;96701.59;5002391;28;20220;-59
2022/12/25 06:55:51;;;;;;;26.50;13.37;;;;;;;7.47;100.00;96698.75;5006876;28;20261;-60
2022/12/25 06:58:17;;;;;;;15.20;12.30;;;;;;;7.53;100.00;96697.41;5000125;28;20241;-60
2022/12/25 07:00:44;;;;;;;17.07;11.47;;;;;;;7.58;100.00;96698.69;4994243;28;20208;-60
2022/12/25 07:03:13;;;;;;;11.43;10.00;;;;;;;7.47;100.00;96706.66;4994751;28;20513;-59
2022/12/25 07:05:39;;;;;;;11.07;9.83;;;;;;;7.42;100.00;96708.78;4995084;28;20209;-59
2022/12/25 07:08:06;;;;;;;10.77;9.67;;;;;;;7.37;100.00;96710.94;4995045;28;20205;-60
2022/12/25 07:10:32;;;;;;;10.37;9.27;;;;;;;7.39;100.00;96701.16;4993818;28;20702;-60
2022/12/25 07:13:00;;;;;;;13.20;9.27;;;;;;;7.39;100.00;96703.78;4994152;28;20661;-60
2022/12/25 07:15:27;;;;;;;16.20;10.10;;;;;;;7.38;100.00;96704.72;4994064;28;20205;-59
2022/12/25 07:17:53;;;;;;;15.03;11.07;;;;;;;7.37;100.00;96703.06;4994423;28;20549;-59
2022/12/25 07:20:20;;;;;;;12.37;11.07;;;;;;;7.37;100.00;96710.94;4994421;28;20193;-60
2022/12/25 07:22:46;;;;;;;16.90;10.77;;;;;;;7.35;100.00;96697.09;4994227;28;20205;-60
2022/12/25 07:25:13;;;;;;;11.73;10.10;;;;;;;7.35;100.00;96689.19;4992881;28;20205;-60
2022/12/25 07:27:41;;;;;;;24.20;10.73;;;;;;;7.35;100.00;96691.81;4994372;28;20206;-60
2022/12/25 07:30:10;;;;;;;10.43;9.07;;;;;;;7.36;100.00;96691.72;4993851;28;20244;-60
2022/12/25 07:32:36;;;;;;;15.67;11.30;;;;;;;7.38;100.00;96697.69;4994519;28;20301;-60
2022/12/25 07:35:03;;;;;;;15.13;10.63;;;;;;;7.43;100.00;96699.94;4993717;28;20205;-60
2022/12/25 07:37:30;;;;;;;25.93;12.07;;;;;;;7.47;100.00;96701.38;4994327;28;20205;-59
2022/12/25 07:39:56;;;;;;;22.13;12.50;;;;;;;7.49;100.00;96699.44;4993550;28;20197;-59
2022/12/25 07:42:24;;;;;;;27.93;13.03;;;;;;;7.42;100.00;96682.47;4994039;28;20216;-60
2022/12/25 07:44:50;;;;;;;23.07;13.43;;;;;;;7.43;100.00;96694.69;5001464;28;20229;-59
2022/12/25 07:47:18;;;;;;;16.47;14.23;;;;;;;7.42;100.00;96693.00;5004236;28;20333;-60
2022/12/25 07:49:44;;;;;;;37.33;14.03;;;;;;;7.42;100.00;96688.59;5003613;28;20225;-60
2022/12/25 07:52:11;;;;;;;20.07;12.33;;;;;;;7.43;100.00;96692.91;5003803;28;20212;-60
2022/12/25 07:54:37;;;;;;;30.73;12.40;;;;;;;7.40;100.00;96705.47;5006246;28;20336;-60
2022/12/25 07:57:04;;;;;;;25.07;12.53;;;;;;;7.40;100.00;96701.00;5003732;28;20216;-60
2022/12/25 07:59:30;;;;;;;17.97;16.17;;;;;;;7.42;100.00;96706.16;5003345;28;20540;-58
2022/12/25 08:01:57;;;;;;;18.73;16.93;;;;;;;7.38;100.00;96707.34;5004505;28;20256;-60
2022/12/25 08:04:25;;;;;;;28.20;14.37;;;;;;;7.40;100.00;96711.53;5005448;28;20228;-60
2022/12/25 08:06:51;;;;;;;15.03;11.93;;;;;;;7.42;100.00;96724.56;5011318;28;20213;-60
2022/12/25 08:09:18;;;;;;;14.70;11.73;;;;;;;7.38;100.00;96713.47;5009967;28;20704;-60
2022/12/25 08:11:46;;;;;;;18.37;10.57;;;;;;;7.41;100.00;96720.25;5016144;28;20207;-59
2022/12/25 08:14:13;;;;;;;18.07;13.03;;;;;;;7.39;100.00;96711.66;5024315;28;20217;-59
2022/12/25 08:16:40;;;;;;;14.67;12.03;;;;;;;7.40;100.00;96722.06;5025776;28;20209;-60
2022/12/25 08:19:07;;;;;;;12.57;11.23;;;;;;;7.45;100.00;96719.06;5026725;28;20194;-60
2022/12/25 08:21:35;;;;;;;22.87;12.20;;;;;;;7.46;100.00;96728.66;5014637;28;20201;-59
2022/12/25 08:24:02;;;;;;;24.63;13.47;;;;;;;7.43;100.00;96731.53;5002304;28;20224;-59
2022/12/25 08:26:29;;;;;;;15.63;12.33;;;;;;;7.45;100.00;96734.84;5003307;28;20224;-60
2022/12/25 08:28:55;;;;;;;15.73;12.13;;;;;;;7.45;100.00;96729.59;5002393;28;20196;-60
2022/12/25 08:31:23;;;;;;;16.13;11.63;;;;;;;7.42;100.00;96733.31;5002369;28;20228;-59
2022/12/25 08:33:51;;;;;;;11.20;10.10;;;;;;;7.50;100.00;96730.91;5002468;28;20211;-59
2022/12/25 08:36:18;;;;;;;11.10;10.10;;;;;;;7.49;100.00;96736.28;5002430;28;20653;-59
2022/12/25 08:38:48;;;;;;;11.90;10.70;;;;;;;7.53;100.00;96732.47;5000895;28;20209;-59
2022/12/25 08:41:15;;;;;;;11.57;9.83;;;;;;;7.54;100.00;96734.13;5002224;28;20237;-60
2022/12/25 08:43:41;;;;;;;9.97;9.07;;;;;;;7.61;100.00;96732.69;4997937;28;20672;-59
2022/12/25 08:46:10;;;;;;;14.23;10.37;;;;;;;7.68;100.00;96738.28;4992578;28;20201;-60
2022/12/25 08:48:37;;;;;;;12.57;11.23;;;;;;;7.68;100.00;96733.88;4992810;28;20201;-60
2022/12/25 08:51:04;;;;;;;14.17;12.23;;;;;;;7.64;100.00;96740.34;4992618;28;20324;-58
2022/12/25 08:53:33;;;;;;;20.07;12.73;;;;;;;7.67;100.00;96745.34;4992707;28;20219;-59
2022/12/25 08:56:03;;;;;;;13.87;12.47;;;;;;;7.70;100.00;96739.84;4992184;28;20870;-58
2022/12/25 08:58:30;;;;;;;14.50;11.60;;;;;;;7.64;100.00;96753.50;4992708;28;20643;-58
2022/12/25 09:00:56;;;;;;;23.83;11.70;;;;;;;7.60;100.00;96752.06;4992568;28;20528;-60
2022/12/25 09:03:23;;;;;;;14.03;12.13;;;;;;;7.57;100.00;96744.41;4992537;28;20205;-60
2022/12/25 09:05:49;;;;;;;17.87;11.50;;;;;;;7.57;100.00;96739.16;4992412;28;20220;-60
2022/12/25 09:08:16;;;;;;;13.43;12.13;;;;;;;7.58;100.00;96732.91;4992101;28;20630;-59
2022/12/25 09:10:42;;;;;;;13.80;11.50;;;;;;;7.51;100.00;96731.72;4991702;28;20576;-60
2022/12/25 09:13:11;;;;;;;13.13;11.17;;;;;;;7.50;100.00;96732.72;4992117;28;20201;-58
2022/12/25 09:15:38;;;;;;;15.67;11.10;;;;;;;7.51;100.00;96735.19;4991660;28;20232;-59
2022/12/25 09:18:05;;;;;;;12.37;10.40;;;;;;;7.59;100.00;96745.13;4992280;28;20205;-60
2022/12/25 09:20:31;;;;;;;14.03;10.20;;;;;;;7.57;100.00;96739.16;4992284;28;20205;-60
2022/12/25 09:22:58;;;;;;;25.50;9.80;;;;;;;7.58;100.00;96735.53;4993238;28;20633;-60
2022/12/25 09:25:24;;;;;;;11.30;10.00;;;;;;;7.58;100.00;96734.72;4993599;28;20209;-60
2022/12/25 09:27:51;;;;;;;11.93;10.10;;;;;;;7.58;100.00;96743.44;4994114;28;20209;-60
2022/12/25 09:30:19;;;;;;;23.63;12.50;;;;;;;7.60;100.00;96745.97;4992135;28;20229;-59
2022/12/25 09:32:45;;;;;;;12.30;11.10;;;;;;;7.65;100.00;96743.81;4991517;28;20209;-60
2022/12/25 09:35:12;;;;;;;13.83;12.33;;;;;;;7.70;100.00;96745.09;4991636;28;20205;-59
2022/12/25 09:37:39;;;;;;;11.40;10.40;;;;;;;7.75;100.00;96750.00;4992087;28;20209;-61
2022/12/25 09:40:07;;;;;;;11.00;10.00;;;;;;;7.78;100.00;96747.97;4990890;28;20249;-60
2022/12/25 09:42:34;;;;;;;17.17;9.93;;;;;;;7.74;100.00;96741.28;4991670;28;20220;-60
2022/12/25 09:45:03;;;;;;;10.93;9.83;;;;;;;7.76;100.00;96754.31;4990866;28;20241;-59
2022/12/25 09:47:33;;;;;;;10.07;9.17;;;;;;;7.74;100.00;96741.28;4991610;28;20554;-60
2022/12/25 09:50:04;;;;;;;15.03;10.27;;;;;;;7.66;100.00;96743.66;4991367;28;20858;-59
2022/12/25 09:52:39;;;;;;;11.17;9.87;;;;;;;7.71;100.00;96736.25;4991494;28;20212;-58
2022/12/25 09:55:11;;;;;;;10.33;9.33;;;;;;;7.75;100.00;96747.38;4991247;28;20204;-60
2022/12/25 09:57:38;;;;;;;22.53;9.80;;;;;;;7.75;100.00;96736.84;4992256;28;20251;-60
2022/12/25 10:00:13;;;;;;;22.13;9.83;;;;;;;7.65;100.00;96728.03;4992179;28;20212;-59
2022/12/25 10:03:15;;;;;;;10.23;9.17;;;;;;;7.63;100.00;96738.66;4992047;28;20201;-60
2022/12/25 10:05:54;;;;;;;30.97;11.07;;;;;;;7.58;100.00;96730.28;4991489;28;20213;-60
2022/12/25 10:08:29;;;;;;;10.60;9.57;;;;;;;7.58;100.00;96724.22;4994029;28;20216;-59
2022/12/25 10:11:01;;;;;;;20.10;11.03;;;;;;;7.58;100.00;96730.28;4992565;28;20223;-61
2022/12/25 10:13:55;;;;;;;10.70;9.67;;;;;;;7.65;100.00;96726.19;4992341;28;20197;-59
2022/12/25 10:16:27;;;;;;;13.57;11.17;;;;;;;7.68;100.00;96731.25;4992056;28;20213;-58
2022/12/25 10:19:10;;;;;;;18.70;11.60;;;;;;;7.64;100.00;96724.56;4992405;28;20202;-58
2022/12/25 10:21:38;;;;;;;13.13;11.77;;;;;;;7.69;100.00;96725.00;4991948;28;20192;-57
2022/12/25 10:24:19;;;;;;;13.27;11.97;;;;;;;7.77;100.00;96719.97;4990901;28;20232;-59
2022/12/25 10:26:46;;;;;;;13.20;11.90;;;;;;;7.86;100.00;96718.41;4991541;28;20208;-59
2022/12/25 10:29:14;;;;;;;12.93;11.63;;;;;;;7.98;100.00;96718.22;4991434;28;20209;-59
2022/12/25 10:31:43;;;;;;;13.83;11.37;;;;;;;8.05;100.00;96715.91;4991424;28;20225;-58
2022/12/25 10:34:12;;;;;;;12.87;11.50;;;;;;;8.17;100.00;96722.81;4991466;28;20197;-58
2022/12/25 10:36:41;;;;;;;15.07;13.47;;;;;;;8.27;100.00;96723.72;4991737;28;20201;-60
2022/12/25 10:39:07;;;;;;;14.67;13.07;;;;;;;8.36;100.00;96732.72;4991000;28;20205;-60
2022/12/25 10:41:53;;;;;;;13.50;12.10;;;;;;;8.47;100.00;96722.09;4990844;28;20644;-59
2022/12/25 10:44:23;;;;;;;10.80;9.70;;;;;;;8.58;100.00;96711.50;4990942;28;20259;-59
2022/12/25 10:46:50;;;;;;;8.87;7.97;;;;;;;8.74;100.00;96717.16;4991645;28;20209;-59
2022/12/25 10:49:20;;;;;;;8.27;7.47;;;;;;;8.95;100.00;96717.13;4990950;28;20201;-59
2022/12/25 10:51:48;;;;;;;8.40;7.50;;;;;;;9.00;100.00;96707.84;4991308;28;20760;-59
2022/12/25 10:54:23;;;;;;;7.43;6.73;;;;;;;8.98;100.00;96698.41;4991280;28;20214;-58
2022/12/25 10:56:56;;;;;;;7.50;6.80;;;;;;;9.03;100.00;96703.28;4991298;28;20208;-58
2022/12/25 10:59:23;;;;;;;7.77;6.97;;;;;;;9.02;100.00;96710.34;4991063;28;20224;-59
2022/12/25 11:01:50;;;;;;;10.73;9.63;;;;;;;8.99;100.00;96708.81;4993465;28;20216;-59
2022/12/25 11:04:21;;;;;;;15.70;14.00;;;;;;;8.86;100.00;96702.06;4994487;28;20248;-59
2022/12/25 11:07:00;;;;;;;16.63;14.87;;;;;;;8.89;100.00;96704.47;4995286;28;20228;-58
2022/12/25 11:09:26;;;;;;;18.47;16.00;;;;;;;8.88;100.00;96700.16;4994209;28;20201;-58
2022/12/25 11:11:53;;;;;;;14.63;13.03;;;;;;;8.94;100.00;96699.63;4994906;28;20360;-59
2022/12/25 11:14:22;;;;;;;9.33;8.43;;;;;;;9.03;100.00;96695.38;4994601;28;20220;-60
2022/12/25 11:16:49;;;;;;;8.10;7.40;;;;;;;9.07;100.00;96697.59;4994890;28;20206;-60
2022/12/25 11:19:25;;;;;;;7.93;7.07;;;;;;;9.12;100.00;96699.84;4994627;28;20205;-58
2022/12/25 11:21:53;;;;;;;8.47;7.60;;;;;;;9.14;100.00;96693.44;4995080;28;20197;-60
2022/12/25 11:24:22;;;;;;;8.60;7.80;;;;;;;9.19;100.00;96699.19;4993841;28;20206;-59
2022/12/25 11:26:50;;;;;;;7.87;7.13;;;;;;;9.29;100.00;96692.13;5000731;28;20220;-59
2022/12/25 11:29:23;;;;;;;8.03;7.27;;;;;;;9.37;100.00;96699.38;4995925;28;20213;-60
2022/12/25 11:31:50;;;;;;;8.50;7.60;;;;;;;9.40;100.00;96699.09;4994366;28;20221;-58
2022/12/25 11:34:27;;;;;;;7.87;7.07;;;;;;;9.40;100.00;96686.75;4993992;28;20201;-60
2022/12/25 11:36:54;;;;;;;7.30;6.60;;;;;;;9.40;100.00;96678.84;4993947;28;20208;-60
2022/12/25 11:39:25;;;;;;;7.10;6.50;;;;;;;9.45;100.00;96686.34;4993846;28;20305;-59
2022/12/25 11:41:55;;;;;;;7.13;6.47;;;;;;;9.49;100.00;96693.03;4994037;28;20204;-58
2022/12/25 11:44:35;;;;;;;6.80;6.20;;;;;;;9.53;100.00;96669.84;4993775;28;20324;-59
2022/12/25 11:47:11;;;;;;;6.43;5.87;;;;;;;9.63;100.00;96666.25;4993564;28;20216;-59
2022/12/25 11:49:49;;;;;;;6.30;5.70;;;;;;;9.72;100.00;96654.84;4993815;28;20500;-59
2022/12/25 11:52:17;;;;;;;6.33;5.73;;;;;;;9.78;100.00;96656.94;4994360;28;20243;-59
2022/12/25 11:54:50;;;;;;;8.60;7.73;;;;;;;9.88;100.00;96646.41;5002074;28;20204;-59
2022/12/25 11:57:17;;;;;;;6.47;5.87;;;;;;;9.94;100.00;96636.09;5009441;28;20204;-58
2022/12/25 11:59:48;;;;;;;6.60;6.00;;;;;;;10.02;100.00;96643.34;5007253;28;20552;-58
2022/12/25 12:02:22;;;;;;;6.33;5.73;;;;;;;10.11;100.00;96617.88;5006486;28;20201;-59
2022/12/25 12:04:55;;;;;;;7.17;6.57;;;;;;;10.19;100.00;96640.03;5014149;28;20235;-59
2022/12/25 12:07:23;;;;;;;7.57;6.87;;;;;;;10.22;100.00;96630.97;5012783;28;20197;-62
2022/12/25 12:09:58;;;;;;;7.27;6.67;;;;;;;10.27;100.00;96605.78;5009856;28;20213;-57
2022/12/25 12:12:32;;;;;;;7.43;6.83;;;;;;;10.29;100.00;96632.06;5005678;28;20209;-57
2022/12/25 12:15:04;;;;;;;6.87;6.27;;;;;;;10.19;100.00;96613.59;4994280;28;20220;-57
2022/12/25 12:17:32;;;;;;;6.70;6.13;;;;;;;10.37;100.00;96611.91;4993748;28;20209;-59
2022/12/25 12:19:58;;;;;;;6.87;6.27;;;;;;;10.38;100.00;96620.66;4995067;28;20220;-58
2022/12/25 12:22:26;;;;;;;6.10;5.50;;;;;;;10.46;100.00;96629.53;4994206;28;20201;-58
2022/12/25 12:24:58;;;;;;;7.00;6.40;;;;;;;10.58;100.00;96632.00;5004590;28;20235;-58
2022/12/25 12:27:29;;;;;;;7.67;7.07;;;;;;;10.62;100.00;96631.59;5007562;28;20216;-59
2022/12/25 12:29:57;;;;;;;7.50;6.90;;;;;;;10.58;100.00;96626.72;5006231;28;20235;-58
2022/12/25 12:32:33;;;;;;;6.50;6.00;;;;;;;10.55;100.00;96635.78;5010386;28;20221;-58
2022/12/25 12:35:04;;;;;;;7.77;7.07;;;;;;;10.43;100.00;96621.88;5010327;28;20197;-58
2022/12/25 12:37:33;;;;;;;7.13;6.53;;;;;;;10.53;100.00;96621.84;4995584;28;20209;-59
2022/12/25 12:40:01;;;;;;;7.63;7.03;;;;;;;10.47;100.00;96619.78;4993197;28;20209;-60
2022/12/25 12:42:29;;;;;;;7.67;7.00;;;;;;;10.47;100.00;96615.34;4993300;28;20209;-61
2022/12/25 12:44:58;;;;;;;7.00;6.40;;;;;;;10.44;100.00;96613.00;5001964;28;20232;-59
2022/12/25 12:47:29;;;;;;;7.50;6.77;;;;;;;10.45;100.00;96603.25;4986615;28;20209;-58
2022/12/25 12:49:58;;;;;;;7.07;6.37;;;;;;;10.42;100.00;96606.16;5002664;28;20592;-59
2022/12/25 12:52:31;;;;;;;7.30;6.60;;;;;;;10.38;100.00;96597.69;5002565;28;20262;-60
2022/12/25 12:55:03;;;;;;;6.33;5.83;;;;;;;10.42;100.00;96606.16;5001876;28;20213;-58
2022/12/25 12:57:33;;;;;;;6.90;6.30;;;;;;;10.43;100.00;96610.47;4985981;28;20209;-62
2022/12/25 13:00:00;;;;;;;8.10;7.30;;;;;;;10.42;100.00;96607.00;5002241;28;20208;-59
2022/12/25 13:02:55;;;;;;;6.47;5.97;;;;;;;10.44;100.00;96613.00;5002323;28;20205;-59
2022/12/25 13:05:27;;;;;;;7.80;7.10;;;;;;;10.41;100.00;96617.72;5001898;28;20204;-59
2022/12/25 13:07:59;;;;;;;7.13;6.53;;;;;;;10.37;100.00;96613.69;5002001;28;20197;-60
2022/12/25 13:10:31;;;;;;;7.10;6.40;;;;;;;10.37;100.00;96626.91;5001781;28;20212;-58
2022/12/25 13:12:59;;;;;;;8.27;7.50;;;;;;;10.36;100.00;96635.81;5002131;28;20213;-58
2022/12/25 13:15:30;;;;;;;7.67;7.00;;;;;;;10.46;100.00;96647.19;5002060;28;20200;-58
2022/12/25 13:18:02;;;;;;;7.47;6.80;;;;;;;10.32;100.00;96652.94;5002114;28;20197;-59